sensor_id;sensor_type;location;lat;lon;timestamp;P1;durP1;ratioP1;P2;durP2;ratioP2
23730;SDS011;12046;44.702;10.622;2023-11-21T00:00:23;16.60;;;14.60;;
23730;SDS011;12046;44.702;10.622;2023-11-21T00:02:49;15.82;;;14.20;;
23730;SDS011;12046;44.702;10.622;2023-11-21T00:05:17;15.48;;;13.88;;
23730;SDS011;12046;44.702;10.622;2023-11-21T00:07:48;15.35;;;13.63;;
23730;SDS011;12046;44.702;10.622;2023-11-21T00:10:14;14.63;;;13.10;;
23730;SDS011;12046;44.702;10.622;2023-11-21T00:12:46;15.00;;;13.40;;
23730;SDS011;12046;44.702;10.622;2023-11-21T00:15:13;15.82;;;14.15;;
23730;SDS011;12046;44.702;10.622;2023-11-21T00:17:39;15.88;;;14.27;;
23730;SDS011;12046;44.702;10.622;2023-11-21T00:20:06;16.83;;;15.10;;
23730;SDS011;12046;44.702;10.622;2023-11-21T00:22:33;18.65;;;16.65;;
23730;SDS011;12046;44.702;10.622;2023-11-21T00:24:59;18.40;;;16.40;;
23730;SDS011;12046;44.702;10.622;2023-11-21T00:27:25;19.17;;;16.90;;
23730;SDS011;12046;44.702;10.622;2023-11-21T00:29:54;17.40;;;15.70;;
23730;SDS011;12046;44.702;10.622;2023-11-21T00:32:20;17.52;;;15.50;;
23730;SDS011;12046;44.702;10.622;2023-11-21T00:34:46;21.42;;;19.23;;
23730;SDS011;12046;44.702;10.622;2023-11-21T00:37:12;23.15;;;20.73;;
23730;SDS011;12046;44.702;10.622;2023-11-21T00:39:40;26.83;;;23.08;;
23730;SDS011;12046;44.702;10.622;2023-11-21T00:42:06;25.40;;;22.75;;
23730;SDS011;12046;44.702;10.622;2023-11-21T00:44:37;25.08;;;21.95;;
23730;SDS011;12046;44.702;10.622;2023-11-21T00:47:04;30.42;;;25.40;;
23730;SDS011;12046;44.702;10.622;2023-11-21T00:49:30;33.08;;;29.33;;
23730;SDS011;12046;44.702;10.622;2023-11-21T00:52:00;33.78;;;30.10;;
23730;SDS011;12046;44.702;10.622;2023-11-21T00:54:27;40.83;;;34.78;;
23730;SDS011;12046;44.702;10.622;2023-11-21T00:56:53;38.60;;;34.50;;
23730;SDS011;12046;44.702;10.622;2023-11-21T00:59:19;39.53;;;34.50;;
23730;SDS011;12046;44.702;10.622;2023-11-21T01:01:47;38.63;;;34.35;;
23730;SDS011;12046;44.702;10.622;2023-11-21T01:04:13;40.40;;;36.05;;
23730;SDS011;12046;44.702;10.622;2023-11-21T01:06:42;39.05;;;33.90;;
23730;SDS011;12046;44.702;10.622;2023-11-21T01:09:08;37.40;;;32.17;;
23730;SDS011;12046;44.702;10.622;2023-11-21T01:11:34;31.90;;;28.50;;
23730;SDS011;12046;44.702;10.622;2023-11-21T01:14:04;34.22;;;30.48;;
23730;SDS011;12046;44.702;10.622;2023-11-21T01:16:31;32.88;;;29.30;;
23730;SDS011;12046;44.702;10.622;2023-11-21T01:18:59;29.70;;;26.63;;
23730;SDS011;12046;44.702;10.622;2023-11-21T01:21:26;25.70;;;22.92;;
23730;SDS011;12046;44.702;10.622;2023-11-21T01:23:53;32.53;;;28.80;;
23730;SDS011;12046;44.702;10.622;2023-11-21T01:26:20;30.92;;;26.83;;
23730;SDS011;12046;44.702;10.622;2023-11-21T01:28:46;25.13;;;22.42;;
23730;SDS011;12046;44.702;10.622;2023-11-21T01:31:14;29.85;;;26.70;;
23730;SDS011;12046;44.702;10.622;2023-11-21T01:33:40;27.35;;;24.42;;
23730;SDS011;12046;44.702;10.622;2023-11-21T01:36:06;26.95;;;24.02;;
23730;SDS011;12046;44.702;10.622;2023-11-21T01:38:35;26.17;;;22.90;;
23730;SDS011;12046;44.702;10.622;2023-11-21T01:41:01;25.48;;;22.25;;
23730;SDS011;12046;44.702;10.622;2023-11-21T01:43:29;23.17;;;20.77;;
23730;SDS011;12046;44.702;10.622;2023-11-21T01:45:56;23.23;;;20.75;;
23730;SDS011;12046;44.702;10.622;2023-11-21T01:48:28;23.17;;;20.23;;
23730;SDS011;12046;44.702;10.622;2023-11-21T01:50:54;27.80;;;24.60;;
23730;SDS011;12046;44.702;10.622;2023-11-21T01:53:20;27.65;;;24.67;;
23730;SDS011;12046;44.702;10.622;2023-11-21T01:55:46;28.92;;;25.88;;
23730;SDS011;12046;44.702;10.622;2023-11-21T01:58:12;28.17;;;25.15;;
23730;SDS011;12046;44.702;10.622;2023-11-21T02:00:38;27.55;;;24.52;;
23730;SDS011;12046;44.702;10.622;2023-11-21T02:03:04;27.40;;;24.10;;
23730;SDS011;12046;44.702;10.622;2023-11-21T02:05:31;24.75;;;22.13;;
23730;SDS011;12046;44.702;10.622;2023-11-21T02:07:57;24.85;;;22.17;;
23730;SDS011;12046;44.702;10.622;2023-11-21T02:10:23;24.48;;;21.92;;
23730;SDS011;12046;44.702;10.622;2023-11-21T02:12:49;23.42;;;21.13;;
23730;SDS011;12046;44.702;10.622;2023-11-21T02:15:16;26.77;;;22.85;;
23730;SDS011;12046;44.702;10.622;2023-11-21T02:17:49;25.63;;;22.92;;
23730;SDS011;12046;44.702;10.622;2023-11-21T02:20:16;24.15;;;21.65;;
23730;SDS011;12046;44.702;10.622;2023-11-21T02:22:43;24.63;;;22.10;;
23730;SDS011;12046;44.702;10.622;2023-11-21T02:25:27;33.75;;;30.27;;
23730;SDS011;12046;44.702;10.622;2023-11-21T02:27:58;29.88;;;26.67;;
23730;SDS011;12046;44.702;10.622;2023-11-21T02:30:26;30.70;;;27.42;;
23730;SDS011;12046;44.702;10.622;2023-11-21T02:32:58;33.40;;;29.80;;
23730;SDS011;12046;44.702;10.622;2023-11-21T02:35:25;29.23;;;26.20;;
23730;SDS011;12046;44.702;10.622;2023-11-21T02:37:52;28.98;;;25.73;;
23730;SDS011;12046;44.702;10.622;2023-11-21T02:40:18;26.63;;;23.83;;
23730;SDS011;12046;44.702;10.622;2023-11-21T02:42:45;28.73;;;25.83;;
23730;SDS011;12046;44.702;10.622;2023-11-21T02:45:13;30.15;;;26.27;;
23730;SDS011;12046;44.702;10.622;2023-11-21T02:47:42;30.63;;;26.70;;
23730;SDS011;12046;44.702;10.622;2023-11-21T02:50:08;30.48;;;27.23;;
23730;SDS011;12046;44.702;10.622;2023-11-21T02:52:34;30.10;;;27.00;;
23730;SDS011;12046;44.702;10.622;2023-11-21T02:55:03;30.08;;;26.92;;
23730;SDS011;12046;44.702;10.622;2023-11-21T02:57:30;29.25;;;25.55;;
23730;SDS011;12046;44.702;10.622;2023-11-21T02:59:59;33.72;;;30.00;;
23730;SDS011;12046;44.702;10.622;2023-11-21T03:02:27;35.55;;;30.48;;
23730;SDS011;12046;44.702;10.622;2023-11-21T03:04:53;35.50;;;31.75;;
23730;SDS011;12046;44.702;10.622;2023-11-21T03:07:22;34.55;;;30.92;;
23730;SDS011;12046;44.702;10.622;2023-11-21T03:09:48;37.40;;;32.50;;
23730;SDS011;12046;44.702;10.622;2023-11-21T03:12:14;36.03;;;32.22;;
23730;SDS011;12046;44.702;10.622;2023-11-21T03:14:45;36.85;;;32.10;;
23730;SDS011;12046;44.702;10.622;2023-11-21T03:17:12;39.58;;;34.03;;
23730;SDS011;12046;44.702;10.622;2023-11-21T03:19:43;38.75;;;34.63;;
23730;SDS011;12046;44.702;10.622;2023-11-21T03:22:08;41.22;;;34.92;;
23730;SDS011;12046;44.702;10.622;2023-11-21T03:24:40;42.33;;;37.60;;
23730;SDS011;12046;44.702;10.622;2023-11-21T03:27:06;39.08;;;34.92;;
23730;SDS011;12046;44.702;10.622;2023-11-21T03:29:35;39.55;;;34.63;;
23730;SDS011;12046;44.702;10.622;2023-11-21T03:32:00;37.78;;;33.78;;
23730;SDS011;12046;44.702;10.622;2023-11-21T03:34:27;41.47;;;36.50;;
23730;SDS011;12046;44.702;10.622;2023-11-21T03:36:53;37.35;;;33.38;;
23730;SDS011;12046;44.702;10.622;2023-11-21T03:39:22;35.22;;;31.42;;
23730;SDS011;12046;44.702;10.622;2023-11-21T03:41:48;40.75;;;36.35;;
23730;SDS011;12046;44.702;10.622;2023-11-21T03:44:14;37.28;;;33.25;;
23730;SDS011;12046;44.702;10.622;2023-11-21T03:46:40;38.53;;;32.72;;
23730;SDS011;12046;44.702;10.622;2023-11-21T03:49:06;33.80;;;29.70;;
23730;SDS011;12046;44.702;10.622;2023-11-21T03:51:32;31.13;;;27.80;;
23730;SDS011;12046;44.702;10.622;2023-11-21T03:54:02;31.52;;;27.92;;
23730;SDS011;12046;44.702;10.622;2023-11-21T03:56:28;33.92;;;30.20;;
23730;SDS011;12046;44.702;10.622;2023-11-21T03:58:57;36.08;;;32.15;;
23730;SDS011;12046;44.702;10.622;2023-11-21T04:01:23;35.67;;;31.83;;
23730;SDS011;12046;44.702;10.622;2023-11-21T04:03:52;32.78;;;29.42;;
23730;SDS011;12046;44.702;10.622;2023-11-21T04:06:18;38.40;;;33.05;;
23730;SDS011;12046;44.702;10.622;2023-11-21T04:08:44;37.60;;;33.42;;
23730;SDS011;12046;44.702;10.622;2023-11-21T04:11:10;37.45;;;33.38;;
23730;SDS011;12046;44.702;10.622;2023-11-21T04:13:39;37.33;;;32.83;;
23730;SDS011;12046;44.702;10.622;2023-11-21T04:16:06;38.28;;;34.05;;
23730;SDS011;12046;44.702;10.622;2023-11-21T04:18:33;35.67;;;31.75;;
23730;SDS011;12046;44.702;10.622;2023-11-21T04:21:02;33.50;;;29.92;;
23730;SDS011;12046;44.702;10.622;2023-11-21T04:23:35;40.70;;;36.30;;
23730;SDS011;12046;44.702;10.622;2023-11-21T04:26:01;37.85;;;33.83;;
23730;SDS011;12046;44.702;10.622;2023-11-21T04:28:28;35.38;;;30.92;;
23730;SDS011;12046;44.702;10.622;2023-11-21T04:30:54;34.22;;;29.05;;
23730;SDS011;12046;44.702;10.622;2023-11-21T04:33:20;32.70;;;29.20;;
23730;SDS011;12046;44.702;10.622;2023-11-21T04:35:49;30.20;;;26.95;;
23730;SDS011;12046;44.702;10.622;2023-11-21T04:38:15;30.48;;;27.20;;
23730;SDS011;12046;44.702;10.622;2023-11-21T04:40:41;30.92;;;26.92;;
23730;SDS011;12046;44.702;10.622;2023-11-21T04:43:11;28.52;;;25.60;;
23730;SDS011;12046;44.702;10.622;2023-11-21T04:45:37;27.20;;;24.35;;
23730;SDS011;12046;44.702;10.622;2023-11-21T04:48:03;25.98;;;23.20;;
23730;SDS011;12046;44.702;10.622;2023-11-21T04:50:30;25.25;;;22.65;;
23730;SDS011;12046;44.702;10.622;2023-11-21T04:52:59;25.40;;;22.70;;
23730;SDS011;12046;44.702;10.622;2023-11-21T04:55:25;33.83;;;29.27;;
23730;SDS011;12046;44.702;10.622;2023-11-21T04:57:56;29.23;;;26.08;;
23730;SDS011;12046;44.702;10.622;2023-11-21T05:00:22;25.75;;;23.02;;
23730;SDS011;12046;44.702;10.622;2023-11-21T05:02:51;27.15;;;24.42;;
23730;SDS011;12046;44.702;10.622;2023-11-21T05:05:17;23.58;;;21.17;;
23730;SDS011;12046;44.702;10.622;2023-11-21T05:07:44;24.70;;;22.10;;
23730;SDS011;12046;44.702;10.622;2023-11-21T05:10:12;23.95;;;21.48;;
23730;SDS011;12046;44.702;10.622;2023-11-21T05:12:40;23.60;;;21.10;;
23730;SDS011;12046;44.702;10.622;2023-11-21T05:15:06;23.10;;;20.70;;
23730;SDS011;12046;44.702;10.622;2023-11-21T05:17:42;25.98;;;23.20;;
23730;SDS011;12046;44.702;10.622;2023-11-21T05:20:19;23.70;;;20.88;;
23730;SDS011;12046;44.702;10.622;2023-11-21T05:22:48;22.60;;;20.27;;
23730;SDS011;12046;44.702;10.622;2023-11-21T05:25:15;32.72;;;28.45;;
23730;SDS011;12046;44.702;10.622;2023-11-21T05:27:45;27.70;;;24.73;;
23730;SDS011;12046;44.702;10.622;2023-11-21T05:30:14;25.35;;;22.63;;
23730;SDS011;12046;44.702;10.622;2023-11-21T05:32:40;23.27;;;20.88;;
23730;SDS011;12046;44.702;10.622;2023-11-21T05:35:11;21.52;;;19.30;;
23730;SDS011;12046;44.702;10.622;2023-11-21T05:37:40;24.85;;;22.17;;
23730;SDS011;12046;44.702;10.622;2023-11-21T05:40:07;27.67;;;24.73;;
23730;SDS011;12046;44.702;10.622;2023-11-21T05:42:37;35.60;;;31.90;;
23730;SDS011;12046;44.702;10.622;2023-11-21T05:45:04;30.55;;;27.30;;
23730;SDS011;12046;44.702;10.622;2023-11-21T05:47:48;31.83;;;27.50;;
23730;SDS011;12046;44.702;10.622;2023-11-21T05:50:16;28.38;;;24.63;;
23730;SDS011;12046;44.702;10.622;2023-11-21T05:52:49;27.10;;;24.20;;
23730;SDS011;12046;44.702;10.622;2023-11-21T05:55:15;31.17;;;26.48;;
23730;SDS011;12046;44.702;10.622;2023-11-21T05:57:43;25.17;;;22.50;;
23730;SDS011;12046;44.702;10.622;2023-11-21T06:00:12;35.10;;;31.38;;
23730;SDS011;12046;44.702;10.622;2023-11-21T06:02:47;31.42;;;28.23;;
23730;SDS011;12046;44.702;10.622;2023-11-21T06:05:18;32.28;;;28.70;;
23730;SDS011;12046;44.702;10.622;2023-11-21T06:07:45;28.63;;;25.77;;
23730;SDS011;12046;44.702;10.622;2023-11-21T06:10:11;26.60;;;23.80;;
23730;SDS011;12046;44.702;10.622;2023-11-21T06:12:40;27.75;;;24.85;;
23730;SDS011;12046;44.702;10.622;2023-11-21T06:15:08;27.58;;;23.65;;
23730;SDS011;12046;44.702;10.622;2023-11-21T06:17:37;27.45;;;24.08;;
23730;SDS011;12046;44.702;10.622;2023-11-21T06:20:05;25.50;;;21.90;;
23730;SDS011;12046;44.702;10.622;2023-11-21T06:22:37;25.20;;;22.52;;
23730;SDS011;12046;44.702;10.622;2023-11-21T06:25:04;24.83;;;22.30;;
23730;SDS011;12046;44.702;10.622;2023-11-21T06:27:31;24.90;;;22.30;;
23730;SDS011;12046;44.702;10.622;2023-11-21T06:30:00;26.15;;;23.35;;
23730;SDS011;12046;44.702;10.622;2023-11-21T06:32:26;27.98;;;24.70;;
23730;SDS011;12046;44.702;10.622;2023-11-21T06:34:55;33.10;;;29.00;;
23730;SDS011;12046;44.702;10.622;2023-11-21T06:37:23;32.67;;;27.02;;
23730;SDS011;12046;44.702;10.622;2023-11-21T06:39:49;26.13;;;23.25;;
23730;SDS011;12046;44.702;10.622;2023-11-21T06:42:17;26.60;;;23.85;;
23730;SDS011;12046;44.702;10.622;2023-11-21T06:44:46;31.02;;;27.13;;
23730;SDS011;12046;44.702;10.622;2023-11-21T06:47:13;33.95;;;30.20;;
23730;SDS011;12046;44.702;10.622;2023-11-21T06:49:39;34.58;;;30.88;;
23730;SDS011;12046;44.702;10.622;2023-11-21T06:52:06;36.47;;;32.55;;
23730;SDS011;12046;44.702;10.622;2023-11-21T06:54:32;40.10;;;35.80;;
23730;SDS011;12046;44.702;10.622;2023-11-21T06:56:58;36.67;;;32.83;;
23730;SDS011;12046;44.702;10.622;2023-11-21T06:59:23;39.65;;;34.53;;
23730;SDS011;12046;44.702;10.622;2023-11-21T07:01:49;41.78;;;34.33;;
23730;SDS011;12046;44.702;10.622;2023-11-21T07:04:15;36.92;;;32.97;;
23730;SDS011;12046;44.702;10.622;2023-11-21T07:06:41;33.92;;;30.35;;
23730;SDS011;12046;44.702;10.622;2023-11-21T07:09:08;30.80;;;26.73;;
23730;SDS011;12046;44.702;10.622;2023-11-21T07:11:35;30.08;;;26.95;;
23730;SDS011;12046;44.702;10.622;2023-11-21T07:14:00;27.55;;;24.65;;
23730;SDS011;12046;44.702;10.622;2023-11-21T07:16:35;31.08;;;27.88;;
23730;SDS011;12046;44.702;10.622;2023-11-21T07:19:03;30.75;;;27.38;;
23730;SDS011;12046;44.702;10.622;2023-11-21T07:21:31;39.30;;;35.10;;
23730;SDS011;12046;44.702;10.622;2023-11-21T07:23:58;37.65;;;33.65;;
23730;SDS011;12046;44.702;10.622;2023-11-21T07:26:26;35.13;;;31.10;;
23730;SDS011;12046;44.702;10.622;2023-11-21T07:28:52;34.45;;;30.63;;
23730;SDS011;12046;44.702;10.622;2023-11-21T07:31:18;40.70;;;35.80;;
23730;SDS011;12046;44.702;10.622;2023-11-21T07:33:45;39.92;;;35.30;;
23730;SDS011;12046;44.702;10.622;2023-11-21T07:36:14;38.65;;;34.55;;
23730;SDS011;12046;44.702;10.622;2023-11-21T07:38:41;39.53;;;35.33;;
23730;SDS011;12046;44.702;10.622;2023-11-21T07:41:07;33.15;;;29.58;;
23730;SDS011;12046;44.702;10.622;2023-11-21T07:43:34;32.83;;;29.52;;
23730;SDS011;12046;44.702;10.622;2023-11-21T07:46:03;32.50;;;29.10;;
23730;SDS011;12046;44.702;10.622;2023-11-21T07:48:29;32.28;;;29.02;;
23730;SDS011;12046;44.702;10.622;2023-11-21T07:50:56;41.33;;;36.95;;
23730;SDS011;12046;44.702;10.622;2023-11-21T07:53:23;40.83;;;36.45;;
23730;SDS011;12046;44.702;10.622;2023-11-21T07:55:51;37.28;;;33.35;;
23730;SDS011;12046;44.702;10.622;2023-11-21T07:58:17;33.70;;;29.83;;
23730;SDS011;12046;44.702;10.622;2023-11-21T08:00:43;33.05;;;29.55;;
23730;SDS011;12046;44.702;10.622;2023-11-21T08:03:09;29.88;;;26.75;;
23730;SDS011;12046;44.702;10.622;2023-11-21T08:05:36;27.83;;;24.83;;
23730;SDS011;12046;44.702;10.622;2023-11-21T08:08:02;29.10;;;25.25;;
23730;SDS011;12046;44.702;10.622;2023-11-21T08:10:28;26.65;;;23.85;;
23730;SDS011;12046;44.702;10.622;2023-11-21T08:12:55;28.02;;;24.98;;
23730;SDS011;12046;44.702;10.622;2023-11-21T08:15:21;28.13;;;25.13;;
23730;SDS011;12046;44.702;10.622;2023-11-21T08:17:47;28.27;;;25.27;;
23730;SDS011;12046;44.702;10.622;2023-11-21T08:20:13;30.08;;;25.50;;
23730;SDS011;12046;44.702;10.622;2023-11-21T08:22:44;41.30;;;36.80;;
23730;SDS011;12046;44.702;10.622;2023-11-21T08:25:10;35.47;;;31.67;;
23730;SDS011;12046;44.702;10.622;2023-11-21T08:27:36;32.63;;;29.15;;
23730;SDS011;12046;44.702;10.622;2023-11-21T08:30:02;30.05;;;26.83;;
23730;SDS011;12046;44.702;10.622;2023-11-21T08:32:28;29.83;;;26.73;;
23730;SDS011;12046;44.702;10.622;2023-11-21T08:35:01;30.02;;;26.92;;
23730;SDS011;12046;44.702;10.622;2023-11-21T08:37:26;34.97;;;31.15;;
23730;SDS011;12046;44.702;10.622;2023-11-21T08:39:55;30.90;;;27.70;;
23730;SDS011;12046;44.702;10.622;2023-11-21T08:42:23;32.75;;;29.23;;
23730;SDS011;12046;44.702;10.622;2023-11-21T08:44:49;32.95;;;29.55;;
23730;SDS011;12046;44.702;10.622;2023-11-21T08:47:16;37.40;;;33.47;;
23730;SDS011;12046;44.702;10.622;2023-11-21T08:49:42;34.38;;;30.77;;
23730;SDS011;12046;44.702;10.622;2023-11-21T08:52:07;37.33;;;33.53;;
23730;SDS011;12046;44.702;10.622;2023-11-21T08:54:33;36.35;;;32.58;;
23730;SDS011;12046;44.702;10.622;2023-11-21T08:56:59;38.75;;;34.60;;
23730;SDS011;12046;44.702;10.622;2023-11-21T08:59:25;39.75;;;35.65;;
23730;SDS011;12046;44.702;10.622;2023-11-21T09:01:51;40.25;;;36.03;;
23730;SDS011;12046;44.702;10.622;2023-11-21T09:04:17;41.65;;;37.40;;
23730;SDS011;12046;44.702;10.622;2023-11-21T09:06:43;37.03;;;33.20;;
23730;SDS011;12046;44.702;10.622;2023-11-21T09:09:11;38.22;;;34.25;;
23730;SDS011;12046;44.702;10.622;2023-11-21T09:11:37;35.17;;;31.58;;
23730;SDS011;12046;44.702;10.622;2023-11-21T09:14:03;37.72;;;32.20;;
23730;SDS011;12046;44.702;10.622;2023-11-21T09:16:29;36.85;;;33.05;;
23730;SDS011;12046;44.702;10.622;2023-11-21T09:18:55;33.15;;;29.75;;
23730;SDS011;12046;44.702;10.622;2023-11-21T09:21:20;32.63;;;29.15;;
23730;SDS011;12046;44.702;10.622;2023-11-21T09:23:47;34.10;;;30.60;;
23730;SDS011;12046;44.702;10.622;2023-11-21T09:26:13;34.20;;;30.60;;
23730;SDS011;12046;44.702;10.622;2023-11-21T09:28:41;37.75;;;33.88;;
23730;SDS011;12046;44.702;10.622;2023-11-21T09:31:12;36.00;;;32.17;;
23730;SDS011;12046;44.702;10.622;2023-11-21T09:33:40;34.42;;;30.73;;
23730;SDS011;12046;44.702;10.622;2023-11-21T09:36:10;35.00;;;31.27;;
23730;SDS011;12046;44.702;10.622;2023-11-21T09:38:38;40.72;;;36.50;;
23730;SDS011;12046;44.702;10.622;2023-11-21T09:41:05;39.45;;;35.28;;
23730;SDS011;12046;44.702;10.622;2023-11-21T09:43:37;42.45;;;38.13;;
23730;SDS011;12046;44.702;10.622;2023-11-21T09:46:04;40.10;;;36.22;;
23730;SDS011;12046;44.702;10.622;2023-11-21T09:48:35;51.85;;;46.35;;
23730;SDS011;12046;44.702;10.622;2023-11-21T09:51:03;46.45;;;41.65;;
23730;SDS011;12046;44.702;10.622;2023-11-21T09:53:29;43.35;;;39.15;;
23730;SDS011;12046;44.702;10.622;2023-11-21T09:55:57;40.30;;;36.42;;
23730;SDS011;12046;44.702;10.622;2023-11-21T09:58:25;39.50;;;35.58;;
23730;SDS011;12046;44.702;10.622;2023-11-21T10:00:55;40.72;;;36.63;;
23730;SDS011;12046;44.702;10.622;2023-11-21T10:03:24;41.58;;;37.28;;
23730;SDS011;12046;44.702;10.622;2023-11-21T10:05:50;37.95;;;34.22;;
23730;SDS011;12046;44.702;10.622;2023-11-21T10:08:18;39.85;;;35.88;;
23730;SDS011;12046;44.702;10.622;2023-11-21T10:10:49;35.33;;;31.77;;
23730;SDS011;12046;44.702;10.622;2023-11-21T10:13:18;34.17;;;30.75;;
23730;SDS011;12046;44.702;10.622;2023-11-21T10:15:44;37.35;;;33.60;;
23730;SDS011;12046;44.702;10.622;2023-11-21T10:18:16;37.45;;;33.72;;
23730;SDS011;12046;44.702;10.622;2023-11-21T10:20:42;39.28;;;35.10;;
23730;SDS011;12046;44.702;10.622;2023-11-21T10:23:11;36.95;;;32.97;;
23730;SDS011;12046;44.702;10.622;2023-11-21T10:25:46;35.58;;;31.98;;
23730;SDS011;12046;44.702;10.622;2023-11-21T10:28:12;36.22;;;32.53;;
23730;SDS011;12046;44.702;10.622;2023-11-21T10:30:38;34.40;;;30.88;;
23730;SDS011;12046;44.702;10.622;2023-11-21T10:33:10;31.67;;;28.52;;
23730;SDS011;12046;44.702;10.622;2023-11-21T10:38:12;33.22;;;29.88;;
23730;SDS011;12046;44.702;10.622;2023-11-21T10:40:40;35.92;;;32.17;;
23730;SDS011;12046;44.702;10.622;2023-11-21T10:43:07;34.42;;;31.13;;
23730;SDS011;12046;44.702;10.622;2023-11-21T10:45:34;34.40;;;30.73;;
23730;SDS011;12046;44.702;10.622;2023-11-21T10:48:04;40.25;;;36.03;;
23730;SDS011;12046;44.702;10.622;2023-11-21T10:50:40;37.45;;;33.55;;
23730;SDS011;12046;44.702;10.622;2023-11-21T10:53:07;37.83;;;34.13;;
23730;SDS011;12046;44.702;10.622;2023-11-21T10:55:33;36.03;;;32.40;;
23730;SDS011;12046;44.702;10.622;2023-11-21T10:58:00;37.88;;;33.97;;
23730;SDS011;12046;44.702;10.622;2023-11-21T11:00:28;34.35;;;30.95;;
23730;SDS011;12046;44.702;10.622;2023-11-21T11:02:55;35.38;;;31.88;;
23730;SDS011;12046;44.702;10.622;2023-11-21T11:05:22;39.70;;;35.40;;
23730;SDS011;12046;44.702;10.622;2023-11-21T11:07:51;34.45;;;30.98;;
23730;SDS011;12046;44.702;10.622;2023-11-21T11:10:26;33.95;;;30.45;;
23730;SDS011;12046;44.702;10.622;2023-11-21T11:12:57;30.00;;;26.85;;
23730;SDS011;12046;44.702;10.622;2023-11-21T11:15:24;29.63;;;26.52;;
23730;SDS011;12046;44.702;10.622;2023-11-21T11:17:51;30.05;;;27.05;;
23730;SDS011;12046;44.702;10.622;2023-11-21T11:20:17;32.40;;;29.30;;
23730;SDS011;12046;44.702;10.622;2023-11-21T11:28:35;33.72;;;30.23;;
23730;SDS011;12046;44.702;10.622;2023-11-21T11:34:29;26.95;;;24.13;;
23730;SDS011;12046;44.702;10.622;2023-11-21T11:37:07;31.35;;;28.08;;
23730;SDS011;12046;44.702;10.622;2023-11-21T11:39:40;30.45;;;27.33;;
23730;SDS011;12046;44.702;10.622;2023-11-21T11:42:10;31.40;;;28.27;;
23730;SDS011;12046;44.702;10.622;2023-11-21T11:52:40;35.45;;;31.80;;
23730;SDS011;12046;44.702;10.622;2023-11-21T11:55:07;34.13;;;30.52;;
23730;SDS011;12046;44.702;10.622;2023-11-21T11:57:38;32.08;;;28.67;;
23730;SDS011;12046;44.702;10.622;2023-11-21T12:00:08;33.83;;;30.30;;
23730;SDS011;12046;44.702;10.622;2023-11-21T12:02:49;37.72;;;33.75;;
23730;SDS011;12046;44.702;10.622;2023-11-21T12:05:17;35.42;;;31.90;;
23730;SDS011;12046;44.702;10.622;2023-11-21T12:07:51;38.30;;;34.50;;
23730;SDS011;12046;44.702;10.622;2023-11-21T12:10:23;34.78;;;31.20;;
23730;SDS011;12046;44.702;10.622;2023-11-21T12:13:23;36.85;;;32.92;;
23730;SDS011;12046;44.702;10.622;2023-11-21T12:15:43;35.85;;;32.28;;
23730;SDS011;12046;44.702;10.622;2023-11-21T12:18:10;32.55;;;29.08;;
23730;SDS011;12046;44.702;10.622;2023-11-21T12:20:36;32.63;;;29.33;;
23730;SDS011;12046;44.702;10.622;2023-11-21T12:23:04;34.33;;;30.92;;
23730;SDS011;12046;44.702;10.622;2023-11-21T12:25:31;35.25;;;31.65;;
23730;SDS011;12046;44.702;10.622;2023-11-21T12:27:58;31.88;;;28.50;;
23730;SDS011;12046;44.702;10.622;2023-11-21T12:30:26;31.17;;;27.98;;
23730;SDS011;12046;44.702;10.622;2023-11-21T12:32:55;28.98;;;26.05;;
23730;SDS011;12046;44.702;10.622;2023-11-21T12:35:25;28.33;;;25.40;;
23730;SDS011;12046;44.702;10.622;2023-11-21T12:37:56;29.98;;;26.88;;
23730;SDS011;12046;44.702;10.622;2023-11-21T12:40:25;31.73;;;28.63;;
23730;SDS011;12046;44.702;10.622;2023-11-21T12:42:52;29.27;;;26.35;;
23730;SDS011;12046;44.702;10.622;2023-11-21T12:45:20;32.30;;;28.85;;
23730;SDS011;12046;44.702;10.622;2023-11-21T12:47:48;33.05;;;29.65;;
23730;SDS011;12046;44.702;10.622;2023-11-21T12:50:23;33.83;;;30.45;;
23730;SDS011;12046;44.702;10.622;2023-11-21T12:52:52;33.78;;;30.42;;
23730;SDS011;12046;44.702;10.622;2023-11-21T12:55:21;30.98;;;27.77;;
23730;SDS011;12046;44.702;10.622;2023-11-21T12:57:51;33.13;;;29.92;;
23730;SDS011;12046;44.702;10.622;2023-11-21T13:00:29;31.02;;;27.92;;
23730;SDS011;12046;44.702;10.622;2023-11-21T13:02:58;33.58;;;30.13;;
23730;SDS011;12046;44.702;10.622;2023-11-21T13:05:34;28.63;;;25.85;;
23730;SDS011;12046;44.702;10.622;2023-11-21T13:08:04;36.03;;;32.33;;
23730;SDS011;12046;44.702;10.622;2023-11-21T13:10:33;32.58;;;29.27;;
23730;SDS011;12046;44.702;10.622;2023-11-21T13:13:05;31.50;;;28.50;;
23730;SDS011;12046;44.702;10.622;2023-11-21T13:15:35;29.75;;;26.83;;
23730;SDS011;12046;44.702;10.622;2023-11-21T13:18:12;29.73;;;26.65;;
23730;SDS011;12046;44.702;10.622;2023-11-21T13:20:38;33.25;;;29.90;;
23730;SDS011;12046;44.702;10.622;2023-11-21T13:23:07;30.55;;;27.40;;
23730;SDS011;12046;44.702;10.622;2023-11-21T13:25:33;27.95;;;25.05;;
23730;SDS011;12046;44.702;10.622;2023-11-21T13:27:59;27.42;;;24.67;;
23730;SDS011;12046;44.702;10.622;2023-11-21T13:30:26;28.70;;;25.88;;
23730;SDS011;12046;44.702;10.622;2023-11-21T13:32:53;29.42;;;26.42;;
23730;SDS011;12046;44.702;10.622;2023-11-21T13:35:22;29.38;;;26.17;;
23730;SDS011;12046;44.702;10.622;2023-11-21T13:37:57;30.55;;;27.38;;
23730;SDS011;12046;44.702;10.622;2023-11-21T13:40:29;32.67;;;29.20;;
23730;SDS011;12046;44.702;10.622;2023-11-21T13:42:55;30.90;;;27.65;;
23730;SDS011;12046;44.702;10.622;2023-11-21T13:45:24;35.05;;;29.73;;
23730;SDS011;12046;44.702;10.622;2023-11-21T13:47:53;33.75;;;29.98;;
23730;SDS011;12046;44.702;10.622;2023-11-21T13:50:27;32.75;;;29.23;;
23730;SDS011;12046;44.702;10.622;2023-11-21T13:52:59;38.08;;;32.25;;
23730;SDS011;12046;44.702;10.622;2023-11-21T13:55:36;42.25;;;35.55;;
23730;SDS011;12046;44.702;10.622;2023-11-21T13:58:02;38.60;;;33.25;;
23730;SDS011;12046;44.702;10.622;2023-11-21T14:00:29;39.42;;;33.80;;
23730;SDS011;12046;44.702;10.622;2023-11-21T14:03:15;41.72;;;37.03;;
23730;SDS011;12046;44.702;10.622;2023-11-21T14:05:45;43.60;;;38.75;;
23730;SDS011;12046;44.702;10.622;2023-11-21T14:08:21;42.60;;;36.75;;
23730;SDS011;12046;44.702;10.622;2023-11-21T14:10:50;44.05;;;38.05;;
23730;SDS011;12046;44.702;10.622;2023-11-21T14:13:20;40.95;;;35.92;;
23730;SDS011;12046;44.702;10.622;2023-11-21T14:15:48;41.17;;;36.58;;
23730;SDS011;12046;44.702;10.622;2023-11-21T14:18:17;44.20;;;38.30;;
23730;SDS011;12046;44.702;10.622;2023-11-21T14:20:51;42.67;;;35.70;;
23730;SDS011;12046;44.702;10.622;2023-11-21T14:23:17;35.17;;;31.27;;
23730;SDS011;12046;44.702;10.622;2023-11-21T14:25:43;34.67;;;30.90;;
23730;SDS011;12046;44.702;10.622;2023-11-21T14:28:09;31.55;;;28.15;;
23730;SDS011;12046;44.702;10.622;2023-11-21T14:30:37;33.92;;;30.00;;
23730;SDS011;12046;44.702;10.622;2023-11-21T14:33:04;36.25;;;32.50;;